Saint Anthony, ID

8:30 AM MDT on September 01, 2015 (GMT -0600)
ComstockRD | | Change Station
CLOSE
Current Station
Personal Weather Station
Location: Ashton, ID
Elevation: 5260 ft
Nearby Weather Stations

Elev 5260 ft 44.07 °N, 111.45 °W | Updated 49 seconds ago

Clear
Clear
51.3 °F
Feels Like 51.3 °F
N
3.0
Wind Variable Wind from East
Gusts 3.0 mph

Today
High -- | Low -- °F
--% Chance of Precip.
Yesterday
High -- | Low -- °F
Precip. -- in
6:49 AM 8:02 PM
Waning Gibbous, 88% visible
Pressure 29.96 in
Visibility 10.0 miles
Clouds Clear
Dew Point 31 °F
Humidity 46%
Rainfall 0.00 in
Snow Depth Not available.
UV 1 out of 12
Pollen 8.90 out of 12
Air Quality Not available.
Flu Activity Not available.
METAR KRXE 011353Z AUTO 07005KT 10SM CLR 06/01 A3003 RMK AO2 SLP145 T00610011
Pressure 29.96 in
Visibility 10.0 miles
Clouds Clear
Dew Point 31 °F
Humidity 46%
Rainfall 0.00 in
Snow Depth Not available.
UV 1 out of 12
Pollen 8.90 out of 12
Air Quality Not available.
Flu Activity Not available.
METAR KRXE 011353Z AUTO 07005KT 10SM CLR 06/01 A3003 RMK AO2 SLP145 T00610011

10-Day Weather Forecast

×

Almanac

Astronomy

Sep. 01, 2015 Rise Set
Actual Time
Civil Twilight
Nautical Twilight
Astronomical Twilight
Moon
Length of Visible Light
Length of Day
Tomorrow will be .
, % of the Moon is Illuminated

Today's Extremes

State Highs State Lows

Community

WunderPhotos

Upload Photos

1,851,513 photos uploaded!

WunderBlogs® & News

Nearby

Air Quality

  Air Quality AQ Index Pollutant
Not available.

Snow Depth

Station Depth Elevation

Earthquake Activity

City Distance Mag. Time & Date
Minimum magnitude displayed is 2.5.

Coastal Water Temperatures

Place Temperature

Stations

Nearby Weather Stations

Station Location Temp. Windchill Dew Point Humidity Wind Precip. Elev Updated Type